createdAt,value
2023-01-08T00:00:21.476Z,51.20
2023-01-08T00:00:44.428Z,51.33
2023-01-08T00:01:07.559Z,51.45
2023-01-08T00:01:30.400Z,52.90
2023-01-08T00:01:53.128Z,51.80
2023-01-08T00:02:15.908Z,48.40
2023-01-08T00:02:38.679Z,50.97
2023-01-08T00:03:03.035Z,52.33
2023-01-08T00:03:26.158Z,51.15
2023-01-08T00:03:49.131Z,49.63
2023-01-08T00:04:12.291Z,49.40
2023-01-08T00:04:35.140Z,48.15
2023-01-08T00:04:58.019Z,48.97
2023-01-08T00:05:20.812Z,50.00
2023-01-08T00:05:43.553Z,49.95
2023-01-08T00:06:07.615Z,49.03
2023-01-08T00:06:31.537Z,50.83
2023-01-08T00:06:54.631Z,50.55
2023-01-08T00:07:17.402Z,49.45
2023-01-08T00:07:40.669Z,50.47
2023-01-08T00:08:03.399Z,51.90
2023-01-08T00:08:26.133Z,48.53
2023-01-08T00:08:49.939Z,47.63
2023-01-08T00:09:13.153Z,50.00
2023-01-08T00:09:36.180Z,53.80
2023-01-08T00:09:58.979Z,71.50
2023-01-08T00:10:21.826Z,66.72
2023-01-08T00:10:47.076Z,62.15
2023-01-08T00:11:10.040Z,62.92
2023-01-08T00:11:32.920Z,58.25
2023-01-08T00:11:55.687Z,57.45
2023-01-08T00:12:18.574Z,53.92
2023-01-08T00:12:42.034Z,50.78
2023-01-08T00:13:04.888Z,51.17
2023-01-08T00:13:27.693Z,57.17
2023-01-08T00:13:50.409Z,60.20
2023-01-08T00:14:13.151Z,60.78
2023-01-08T00:14:35.984Z,68.00
2023-01-08T00:14:58.756Z,57.13
2023-01-08T00:15:21.549Z,52.70
2023-01-08T00:15:44.481Z,44.75
2023-01-08T00:16:11.216Z,33.53
2023-01-08T00:16:34.039Z,45.30
2023-01-08T00:16:56.931Z,37.25
2023-01-08T00:17:20.027Z,40.15
2023-01-08T00:17:45.906Z,35.08
2023-01-08T00:18:10.300Z,33.25
2023-01-08T00:18:33.092Z,38.95
2023-01-08T00:18:55.836Z,41.60
2023-01-08T00:19:18.637Z,48.67
2023-01-08T00:19:42.299Z,50.72
2023-01-08T00:20:06.889Z,50.35
2023-01-08T00:20:29.894Z,60.47
2023-01-08T00:20:52.798Z,56.60
2023-01-08T00:21:15.537Z,49.10
2023-01-08T00:21:38.357Z,68.93
2023-01-08T00:22:01.125Z,81.63
2023-01-08T00:22:23.884Z,48.03
2023-01-08T00:22:49.027Z,39.45
2023-01-08T00:23:12.417Z,52.17
2023-01-08T00:23:35.442Z,51.97
2023-01-08T00:23:58.252Z,54.80
2023-01-08T00:24:21.019Z,49.92
2023-01-08T00:24:43.984Z,52.20
2023-01-08T00:25:08.537Z,55.42
2023-01-08T00:25:31.354Z,50.55
2023-01-08T00:25:54.100Z,49.90
2023-01-08T00:26:16.864Z,57.63
2023-01-08T00:26:40.853Z,66.30
2023-01-08T00:27:03.688Z,61.42
2023-01-08T00:27:26.522Z,62.15
2023-01-08T00:27:49.619Z,57.92
2023-01-08T00:28:12.583Z,54.92
2023-01-08T00:28:35.372Z,59.83
2023-01-08T00:28:58.085Z,84.93
2023-01-08T00:29:20.869Z,61.40
2023-01-08T00:29:43.653Z,47.47
2023-01-08T00:30:07.998Z,47.20
2023-01-08T00:30:33.485Z,45.95
2023-01-08T00:30:56.353Z,41.22
2023-01-08T00:31:19.169Z,48.80
2023-01-08T00:31:41.975Z,42.65
2023-01-08T00:32:05.075Z,45.20
2023-01-08T00:32:27.933Z,40.92
2023-01-08T00:32:50.761Z,46.92
2023-01-08T00:33:15.091Z,42.70
2023-01-08T00:33:38.431Z,42.25
2023-01-08T00:34:01.119Z,45.45
2023-01-08T00:34:24.179Z,44.47
2023-01-08T00:34:47.134Z,40.15
2023-01-08T00:35:10.334Z,40.53
2023-01-08T00:35:33.139Z,41.20
2023-01-08T00:35:55.852Z,43.75
2023-01-08T00:36:19.141Z,43.10
2023-01-08T00:36:41.918Z,43.63
2023-01-08T00:37:04.711Z,41.25
2023-01-08T00:37:28.552Z,36.88
2023-01-08T00:37:51.308Z,41.63
2023-01-08T00:38:14.074Z,36.33
2023-01-08T00:38:36.955Z,38.17
2023-01-08T00:39:00.681Z,47.97
2023-01-08T00:39:23.579Z,48.53
2023-01-08T00:39:46.434Z,42.00
2023-01-08T00:40:10.955Z,39.42
2023-01-08T00:40:34.415Z,38.00
2023-01-08T00:40:57.181Z,42.38
2023-01-08T00:41:19.929Z,39.10
2023-01-08T00:41:45.508Z,41.00
2023-01-08T00:42:08.263Z,40.42
2023-01-08T00:42:31.096Z,41.33
2023-01-08T00:42:53.770Z,47.65
2023-01-08T00:43:16.589Z,48.10
2023-01-08T00:43:39.444Z,47.47
2023-01-08T00:44:02.173Z,43.88
2023-01-08T00:44:25.063Z,41.67
2023-01-08T00:44:47.789Z,48.10
2023-01-08T00:45:11.563Z,45.42
2023-01-08T00:45:34.378Z,47.72
2023-01-08T00:45:57.294Z,54.33
2023-01-08T00:46:20.265Z,52.20
2023-01-08T00:46:43.053Z,47.63
2023-01-08T00:47:05.889Z,48.95
2023-01-08T00:47:28.754Z,59.13
2023-01-08T00:47:51.599Z,70.55
2023-01-08T00:48:15.793Z,77.68
2023-01-08T00:48:39.214Z,59.85
2023-01-08T00:49:02.404Z,64.05
2023-01-08T00:49:25.278Z,64.75
2023-01-08T00:49:48.219Z,77.88
2023-01-08T00:50:11.178Z,50.13
2023-01-08T00:50:34.022Z,58.70
2023-01-08T00:50:57.079Z,122.93
2023-01-08T00:51:19.843Z,133.00
2023-01-08T00:51:42.566Z,109.78
2023-01-08T00:52:07.654Z,115.07
2023-01-08T00:52:30.606Z,79.93
2023-01-08T00:52:53.431Z,51.95
2023-01-08T00:53:16.170Z,46.05
2023-01-08T00:53:39.059Z,58.05
2023-01-08T00:54:01.773Z,55.30
2023-01-08T00:54:24.619Z,47.28
2023-01-08T00:54:47.457Z,40.83
2023-01-08T00:55:10.256Z,48.25
2023-01-08T00:55:32.976Z,49.58
2023-01-08T00:56:00.843Z,56.42
2023-01-08T00:56:23.557Z,52.05
2023-01-08T00:56:46.259Z,69.68
2023-01-08T00:57:11.282Z,68.95
2023-01-08T00:57:34.884Z,55.80
2023-01-08T00:57:58.598Z,49.53
2023-01-08T00:58:22.388Z,60.03
2023-01-08T00:58:45.250Z,79.13
2023-01-08T00:59:08.004Z,86.93
2023-01-08T00:59:33.871Z,91.97
2023-01-08T00:59:56.579Z,59.13
2023-01-08T01:00:19.468Z,86.35
2023-01-08T01:00:42.165Z,63.90
2023-01-08T01:01:10.382Z,86.00
2023-01-08T01:01:33.415Z,82.63
2023-01-08T01:01:56.604Z,69.57
2023-01-08T01:02:19.723Z,58.20
2023-01-08T01:02:42.836Z,77.82
2023-01-08T01:03:05.608Z,97.05
2023-01-08T01:03:29.848Z,98.30
2023-01-08T01:03:52.709Z,116.30
2023-01-08T01:04:15.528Z,141.95
2023-01-08T01:04:38.408Z,183.02
2023-01-08T01:05:01.199Z,113.95
2023-01-08T01:05:24.005Z,96.32
2023-01-08T01:05:46.869Z,108.13
2023-01-08T01:06:10.495Z,131.43
2023-01-08T01:06:33.166Z,128.90
2023-01-08T01:06:55.978Z,80.35
2023-01-08T01:07:19.218Z,49.45
2023-01-08T01:07:42.664Z,66.68
2023-01-08T01:08:07.890Z,74.88
2023-01-08T01:08:30.706Z,65.00
2023-01-08T01:08:53.793Z,49.08
2023-01-08T01:09:16.644Z,51.13
2023-01-08T01:09:39.437Z,56.90
2023-01-08T01:10:02.155Z,69.65
2023-01-08T01:10:24.860Z,57.95
2023-01-08T01:10:47.514Z,71.97
2023-01-08T01:11:11.049Z,66.30
2023-01-08T01:11:33.914Z,48.72
2023-01-08T01:11:56.648Z,61.50
2023-01-08T01:12:19.441Z,68.63
2023-01-08T01:12:42.283Z,61.70
2023-01-08T01:13:05.116Z,75.70
2023-01-08T01:13:27.865Z,80.20
2023-01-08T01:13:50.606Z,68.95
2023-01-08T01:14:13.325Z,67.07
2023-01-08T01:14:37.363Z,108.60
2023-01-08T01:15:00.963Z,107.78
2023-01-08T01:15:23.754Z,69.85
2023-01-08T01:15:46.473Z,65.68
2023-01-08T01:16:09.212Z,58.65
2023-01-08T01:16:32.213Z,56.70
2023-01-08T01:16:55.070Z,58.67
2023-01-08T01:17:17.920Z,54.28
2023-01-08T01:17:41.129Z,50.13
2023-01-08T01:18:04.003Z,59.53
2023-01-08T01:18:26.849Z,49.80
2023-01-08T01:18:52.584Z,50.05
2023-01-08T01:19:15.639Z,61.85
2023-01-08T01:19:38.719Z,55.55
2023-01-08T01:20:01.573Z,65.82
2023-01-08T01:20:24.325Z,55.67
2023-01-08T01:20:47.079Z,54.15
2023-01-08T01:21:22.349Z,45.95
2023-01-08T01:21:45.118Z,46.05
2023-01-08T01:22:07.940Z,45.25
2023-01-08T01:22:32.094Z,42.22
2023-01-08T01:22:54.882Z,33.10
2023-01-08T01:23:17.603Z,33.40
2023-01-08T01:23:40.613Z,38.33
2023-01-08T01:24:05.839Z,42.58
2023-01-08T01:24:28.762Z,40.05
2023-01-08T01:24:51.449Z,30.40
2023-01-08T01:25:14.304Z,31.70
2023-01-08T01:25:38.112Z,26.30
2023-01-08T01:26:00.801Z,25.75
2023-01-08T01:26:23.585Z,23.08
2023-01-08T01:26:46.258Z,22.70
2023-01-08T01:27:09.616Z,23.15
2023-01-08T01:27:32.323Z,23.77
2023-01-08T01:27:55.074Z,25.52
2023-01-08T01:28:18.001Z,29.17
2023-01-08T01:28:40.823Z,24.02
2023-01-08T01:29:03.520Z,27.77
2023-01-08T01:29:26.397Z,28.55
2023-01-08T01:29:49.194Z,29.55
2023-01-08T01:30:12.692Z,28.02
2023-01-08T01:30:35.562Z,29.80
2023-01-08T01:30:58.534Z,27.42
2023-01-08T01:31:21.545Z,25.42
2023-01-08T01:31:44.609Z,27.25
2023-01-08T01:32:07.368Z,29.23
2023-01-08T01:32:30.038Z,29.30
2023-01-08T01:32:52.855Z,30.25
2023-01-08T01:33:15.692Z,37.90
2023-01-08T01:33:38.723Z,36.72
2023-01-08T01:34:03.052Z,40.75
2023-01-08T01:34:25.824Z,45.40
2023-01-08T01:34:48.539Z,43.00
2023-01-08T01:35:11.255Z,36.00
2023-01-08T01:35:34.007Z,41.20
2023-01-08T01:36:01.184Z,45.67
2023-01-08T01:36:24.056Z,37.40
2023-01-08T01:36:46.883Z,40.25
2023-01-08T01:37:10.891Z,42.92
2023-01-08T01:37:33.600Z,42.45
2023-01-08T01:37:56.383Z,40.08
2023-01-08T01:38:19.148Z,47.35
2023-01-08T01:38:43.723Z,48.22
2023-01-08T01:39:06.495Z,39.78
2023-01-08T01:39:29.381Z,38.50
2023-01-08T01:39:52.126Z,45.17
2023-01-08T01:40:14.951Z,49.75
2023-01-08T01:40:42.473Z,54.17
2023-01-08T01:41:05.443Z,52.40
2023-01-08T01:41:29.637Z,55.38
2023-01-08T01:41:53.512Z,60.42
2023-01-08T01:42:35.960Z,48.03
2023-01-08T01:42:58.773Z,42.33
2023-01-08T01:43:35.273Z,41.33
2023-01-08T01:43:58.727Z,47.85
2023-01-08T01:44:40.074Z,50.50
2023-01-08T01:45:03.283Z,41.50
2023-01-08T01:45:27.923Z,35.92
2023-01-08T01:45:50.801Z,35.38
2023-01-08T01:46:21.403Z,29.42
2023-01-08T01:46:44.439Z,29.42
2023-01-08T01:47:16.662Z,27.15
2023-01-08T01:47:39.848Z,29.55
2023-01-08T01:48:04.015Z,30.33
2023-01-08T01:48:27.152Z,32.17
2023-01-08T01:48:52.240Z,35.80
2023-01-08T01:49:19.053Z,36.83
2023-01-08T01:49:42.718Z,42.58
2023-01-08T01:50:13.895Z,45.22
2023-01-08T01:50:38.403Z,46.33
2023-01-08T01:51:01.110Z,52.83
2023-01-08T01:51:23.864Z,45.90
2023-01-08T01:51:48.490Z,60.17
2023-01-08T01:52:11.389Z,51.78
2023-01-08T01:52:35.525Z,53.40
2023-01-08T01:53:01.295Z,60.15
2023-01-08T01:53:24.942Z,59.63
2023-01-08T01:53:48.027Z,66.80
2023-01-08T01:54:11.812Z,67.05
2023-01-08T01:54:34.573Z,56.53
2023-01-08T01:54:57.438Z,58.58
2023-01-08T01:55:20.176Z,72.15
2023-01-08T01:55:43.685Z,62.58
2023-01-08T01:56:07.363Z,68.53
2023-01-08T01:56:30.266Z,56.30
2023-01-08T01:56:53.062Z,70.22
2023-01-08T01:57:15.851Z,92.07
2023-01-08T01:57:38.728Z,65.93
2023-01-08T01:58:05.117Z,67.47
2023-01-08T01:58:29.296Z,67.93
2023-01-08T01:58:52.003Z,92.47
2023-01-08T01:59:14.786Z,102.88
2023-01-08T01:59:37.533Z,111.75
2023-01-08T02:00:00.532Z,89.70
2023-01-08T02:00:23.456Z,70.50
2023-01-08T02:00:46.247Z,67.28
2023-01-08T02:01:09.132Z,67.38
2023-01-08T02:01:32.103Z,56.25
2023-01-08T02:01:55.760Z,53.47
2023-01-08T02:02:21.277Z,96.35
2023-01-08T02:02:45.675Z,73.10
2023-01-08T02:03:10.168Z,57.70
2023-01-08T02:03:35.298Z,59.13
2023-01-08T02:03:58.454Z,46.13
2023-01-08T02:04:22.794Z,47.78
2023-01-08T02:04:45.670Z,46.75
2023-01-08T02:05:09.227Z,45.17
2023-01-08T02:05:35.064Z,51.17
2023-01-08T02:06:00.402Z,53.40
2023-01-08T02:06:29.122Z,46.55
2023-01-08T02:06:56.097Z,49.05
2023-01-08T02:07:23.034Z,42.65
2023-01-08T02:07:50.243Z,39.53
2023-01-08T02:08:16.408Z,42.65
2023-01-08T02:08:50.798Z,40.97
2023-01-08T02:09:17.882Z,35.65
2023-01-08T02:09:43.699Z,35.85
2023-01-08T02:10:10.001Z,38.92
2023-01-08T02:10:37.128Z,43.03
2023-01-08T02:11:05.477Z,41.63
2023-01-08T02:11:34.077Z,34.47
2023-01-08T02:12:18.096Z,37.25
2023-01-08T02:12:44.012Z,37.00
2023-01-08T02:13:10.491Z,40.70
2023-01-08T02:13:35.174Z,47.05
2023-01-08T02:14:01.455Z,51.72
2023-01-08T02:14:29.107Z,41.65
2023-01-08T02:15:04.911Z,39.13
2023-01-08T02:15:30.114Z,38.50
2023-01-08T02:15:55.547Z,37.33
2023-01-08T02:16:20.847Z,37.65
2023-01-08T02:16:47.296Z,49.25
2023-01-08T02:17:11.036Z,40.58
2023-01-08T02:17:36.847Z,40.53
2023-01-08T02:18:03.113Z,41.35
2023-01-08T02:18:29.512Z,35.22
2023-01-08T02:18:55.442Z,34.60
2023-01-08T02:19:27.692Z,38.85
2023-01-08T02:19:51.861Z,35.85
2023-01-08T02:20:17.495Z,31.95
2023-01-08T02:20:41.378Z,33.83
2023-01-08T02:21:05.622Z,33.50
2023-01-08T02:21:36.489Z,36.50
2023-01-08T02:22:05.913Z,39.63
2023-01-08T02:22:36.119Z,32.78
2023-01-08T02:23:12.711Z,34.47
2023-01-08T02:23:41.282Z,30.77
2023-01-08T02:24:06.323Z,36.10
2023-01-08T02:24:37.752Z,35.05
2023-01-08T02:25:03.058Z,34.42
2023-01-08T02:25:33.457Z,29.27
2023-01-08T02:26:18.177Z,32.95
2023-01-08T02:26:40.874Z,27.45
2023-01-08T02:27:03.658Z,23.40
2023-01-08T02:27:27.357Z,24.40
2023-01-08T02:27:50.252Z,28.52
2023-01-08T02:28:13.779Z,27.02
2023-01-08T02:28:41.115Z,25.30
2023-01-08T02:29:05.324Z,22.45
2023-01-08T02:29:28.817Z,21.02
2023-01-08T02:29:51.802Z,23.50
2023-01-08T02:30:14.564Z,23.98
2023-01-08T02:30:37.390Z,24.73
2023-01-08T02:31:00.339Z,24.50
2023-01-08T02:31:23.707Z,22.92
2023-01-08T02:31:46.497Z,21.85
2023-01-08T02:32:09.276Z,21.83
2023-01-08T02:32:34.021Z,24.98
2023-01-08T02:32:56.801Z,22.40
2023-01-08T02:33:19.512Z,27.88
2023-01-08T02:33:42.484Z,36.00
2023-01-08T02:34:05.261Z,33.65
2023-01-08T02:34:28.659Z,31.42
2023-01-08T02:34:51.736Z,25.05
2023-01-08T02:35:14.738Z,31.73
2023-01-08T02:35:39.282Z,45.60
2023-01-08T02:36:31.801Z,51.40
2023-01-08T02:36:55.244Z,66.32
2023-01-08T02:37:18.461Z,56.13
2023-01-08T02:37:41.275Z,61.35
2023-01-08T02:38:04.493Z,40.90
2023-01-08T02:38:28.283Z,34.00
2023-01-08T02:38:57.343Z,30.35
2023-01-08T02:39:35.537Z,30.35
2023-01-08T02:40:06.242Z,32.97
2023-01-08T02:40:31.162Z,40.55
2023-01-08T02:40:57.545Z,43.53
2023-01-08T02:41:22.102Z,32.25
2023-01-08T02:41:53.781Z,32.20
2023-01-08T02:42:20.820Z,28.45
2023-01-08T02:42:46.889Z,31.40
2023-01-08T02:43:11.039Z,30.98
2023-01-08T02:43:36.445Z,33.13
2023-01-08T02:43:59.195Z,32.05
2023-01-08T02:44:37.533Z,33.08
2023-01-08T02:45:05.318Z,33.15
2023-01-08T02:45:34.157Z,33.42
2023-01-08T02:45:58.812Z,40.03
2023-01-08T02:46:24.360Z,34.28
2023-01-08T02:46:47.191Z,36.63
2023-01-08T02:47:12.643Z,31.05
2023-01-08T02:47:36.974Z,29.48
2023-01-08T02:48:03.237Z,29.02
2023-01-08T02:48:33.986Z,29.40
2023-01-08T02:48:58.886Z,28.70
2023-01-08T02:49:21.709Z,30.42
2023-01-08T02:49:44.503Z,33.70
2023-01-08T02:50:14.943Z,33.17
2023-01-08T02:50:39.846Z,32.90
2023-01-08T02:51:07.883Z,32.45
2023-01-08T02:51:33.759Z,30.08
2023-01-08T02:51:56.571Z,29.30
2023-01-08T02:52:19.361Z,27.58
2023-01-08T02:52:49.136Z,46.03
2023-01-08T02:53:14.617Z,42.45
2023-01-08T02:53:39.611Z,32.47
2023-01-08T02:54:04.001Z,43.63
2023-01-08T02:54:28.281Z,37.88
2023-01-08T02:54:51.046Z,43.25
2023-01-08T02:55:13.789Z,36.28
2023-01-08T02:55:36.771Z,39.13
2023-01-08T02:56:00.645Z,33.60
2023-01-08T02:56:27.296Z,36.75
2023-01-08T02:56:53.480Z,29.95
2023-01-08T02:57:16.328Z,30.80
2023-01-08T02:57:39.007Z,27.65
2023-01-08T02:58:01.756Z,31.00
2023-01-08T02:58:24.755Z,27.90
2023-01-08T02:58:48.572Z,28.27
2023-01-08T02:59:11.562Z,25.63
2023-01-08T02:59:34.261Z,25.85
2023-01-08T02:59:56.961Z,27.27
2023-01-08T03:00:20.028Z,32.97
2023-01-08T03:00:43.232Z,34.85
2023-01-08T03:01:08.426Z,31.38
2023-01-08T03:01:31.510Z,28.55
2023-01-08T03:01:54.604Z,29.70
2023-01-08T03:02:17.714Z,29.30
2023-01-08T03:02:40.591Z,28.83
2023-01-08T03:03:07.921Z,28.75
2023-01-08T03:03:30.727Z,28.23
2023-01-08T03:03:55.059Z,37.13
2023-01-08T03:04:19.044Z,24.98
2023-01-08T03:04:47.122Z,39.10
2023-01-08T03:05:14.327Z,65.70
2023-01-08T03:05:37.108Z,42.97
2023-01-08T03:06:03.337Z,38.53
2023-01-08T03:06:26.166Z,42.22
2023-01-08T03:06:49.101Z,40.47
2023-01-08T03:07:11.859Z,44.20
2023-01-08T03:07:34.739Z,43.70
2023-01-08T03:07:57.460Z,39.70
2023-01-08T03:08:21.286Z,31.27
2023-01-08T03:08:46.123Z,29.65
2023-01-08T03:09:08.929Z,34.95
2023-01-08T03:09:31.763Z,28.42
2023-01-08T03:09:55.321Z,25.98
2023-01-08T03:10:19.033Z,27.10
2023-01-08T03:10:42.371Z,28.42
2023-01-08T03:11:06.686Z,26.50
2023-01-08T03:11:32.248Z,25.60
2023-01-08T03:11:58.082Z,40.15
2023-01-08T03:12:24.186Z,43.53
2023-01-08T03:12:50.885Z,57.47
2023-01-08T03:13:16.488Z,66.65
2023-01-08T03:13:44.362Z,63.67
2023-01-08T03:14:09.404Z,58.97
2023-01-08T03:14:35.569Z,73.15
2023-01-08T03:15:02.480Z,91.80
2023-01-08T03:15:27.370Z,58.72
2023-01-08T03:15:51.677Z,61.72
2023-01-08T03:16:17.073Z,48.25
2023-01-08T03:16:41.686Z,63.03
2023-01-08T03:17:06.794Z,73.43
2023-01-08T03:17:31.009Z,78.72
2023-01-08T03:17:56.165Z,67.75
2023-01-08T03:18:20.882Z,61.75
2023-01-08T03:18:46.086Z,66.63
2023-01-08T03:19:12.089Z,54.70
2023-01-08T03:19:38.325Z,126.03
2023-01-08T03:20:04.150Z,120.43
2023-01-08T03:20:26.970Z,111.78
2023-01-08T03:20:49.738Z,126.15
2023-01-08T03:21:12.547Z,97.00
2023-01-08T03:21:35.859Z,95.72
2023-01-08T03:21:58.615Z,111.05
2023-01-08T03:22:21.380Z,106.45
2023-01-08T03:22:45.778Z,99.97
2023-01-08T03:23:10.210Z,74.82
2023-01-08T03:23:33.282Z,100.40
2023-01-08T03:23:56.041Z,162.27
2023-01-08T03:24:21.854Z,168.20
2023-01-08T03:24:45.298Z,176.07
2023-01-08T03:25:08.601Z,176.73
2023-01-08T03:25:31.520Z,128.70
2023-01-08T03:25:54.387Z,143.02
2023-01-08T03:26:20.233Z,125.88
2023-01-08T03:26:44.496Z,133.40
2023-01-08T03:27:09.448Z,127.03
2023-01-08T03:27:32.852Z,97.47
2023-01-08T03:27:58.497Z,66.80
2023-01-08T03:28:24.177Z,132.95
2023-01-08T03:28:48.691Z,198.00
2023-01-08T03:29:13.151Z,123.15
2023-01-08T03:29:36.226Z,70.03
2023-01-08T03:29:59.386Z,58.67
2023-01-08T03:30:22.272Z,74.93
2023-01-08T03:30:45.028Z,75.55
2023-01-08T03:31:07.957Z,92.20
2023-01-08T03:31:30.805Z,80.93
2023-01-08T03:31:56.812Z,70.57
2023-01-08T03:32:19.780Z,69.95
2023-01-08T03:32:42.667Z,68.78
2023-01-08T03:33:05.439Z,85.35
2023-01-08T03:33:28.244Z,98.43
2023-01-08T03:33:51.040Z,102.55
2023-01-08T03:34:13.854Z,152.15
2023-01-08T03:34:37.773Z,86.25
2023-01-08T03:35:02.963Z,70.28
2023-01-08T03:35:25.768Z,64.38
2023-01-08T03:35:50.501Z,61.20
2023-01-08T03:36:14.159Z,57.83
2023-01-08T03:36:37.005Z,61.35
2023-01-08T03:37:00.664Z,65.38
2023-01-08T03:37:25.242Z,65.93
2023-01-08T03:37:51.523Z,59.80
2023-01-08T03:38:17.461Z,99.90
2023-01-08T03:38:42.254Z,69.55
2023-01-08T03:39:08.502Z,55.72
2023-01-08T03:39:33.446Z,56.58
2023-01-08T03:39:58.276Z,62.72
2023-01-08T03:40:22.105Z,67.65
2023-01-08T03:40:46.399Z,98.68
2023-01-08T03:41:11.761Z,94.72
2023-01-08T03:41:34.669Z,107.68
2023-01-08T03:42:00.734Z,78.15
2023-01-08T03:42:23.521Z,92.70
2023-01-08T03:42:46.267Z,79.47
2023-01-08T03:43:08.967Z,77.07
2023-01-08T03:43:31.727Z,108.63
2023-01-08T03:43:54.416Z,79.07
2023-01-08T03:44:17.144Z,97.32
2023-01-08T03:44:40.117Z,135.10
2023-01-08T03:45:02.868Z,96.60
2023-01-08T03:45:25.930Z,52.55
2023-01-08T03:45:50.158Z,39.72
2023-01-08T03:46:15.754Z,52.97
2023-01-08T03:46:40.401Z,49.33
2023-01-08T03:47:03.155Z,53.42
2023-01-08T03:47:25.950Z,58.53
2023-01-08T03:47:48.681Z,44.28
2023-01-08T03:48:11.437Z,41.42
2023-01-08T03:48:34.179Z,36.60
2023-01-08T03:48:57.052Z,39.60
2023-01-08T03:49:19.846Z,35.80
2023-01-08T03:49:42.622Z,32.85
2023-01-08T03:50:08.052Z,30.42
2023-01-08T03:50:30.957Z,28.85
2023-01-08T03:50:53.692Z,39.80
2023-01-08T03:51:16.442Z,63.00
2023-01-08T03:51:42.011Z,53.25
2023-01-08T03:52:04.711Z,45.67
2023-01-08T03:52:28.860Z,41.20
2023-01-08T03:52:51.692Z,35.10
2023-01-08T03:53:14.503Z,32.90
2023-01-08T03:53:37.276Z,32.33
2023-01-08T03:54:00.115Z,30.85
2023-01-08T03:54:24.037Z,30.10
2023-01-08T03:54:46.893Z,29.15
2023-01-08T03:55:10.577Z,25.90
2023-01-08T03:55:33.324Z,24.42
2023-01-08T03:55:56.225Z,26.63
2023-01-08T03:56:19.058Z,27.60
2023-01-08T03:56:41.816Z,27.98
2023-01-08T03:57:07.117Z,31.95
2023-01-08T03:57:29.867Z,33.28
2023-01-08T03:57:52.653Z,38.92
2023-01-08T03:58:15.477Z,32.17
2023-01-08T03:58:38.249Z,29.13
2023-01-08T03:59:01.008Z,30.27
2023-01-08T03:59:23.907Z,30.25
2023-01-08T03:59:46.683Z,30.23
2023-01-08T04:00:11.538Z,30.23
2023-01-08T04:00:34.331Z,28.83
2023-01-08T04:00:57.196Z,31.77
2023-01-08T04:01:20.045Z,31.77
2023-01-08T04:01:43.072Z,28.77
2023-01-08T04:02:06.166Z,27.38
2023-01-08T04:02:29.128Z,26.60
2023-01-08T04:02:52.046Z,29.65
2023-01-08T04:03:15.907Z,28.30
2023-01-08T04:03:38.789Z,27.83
2023-01-08T04:04:01.597Z,25.20
2023-01-08T04:04:24.502Z,26.58
2023-01-08T04:04:47.889Z,30.83
2023-01-08T04:05:10.736Z,32.35
2023-01-08T04:05:33.540Z,30.30
2023-01-08T04:05:56.689Z,29.27
2023-01-08T04:06:19.544Z,30.95
2023-01-08T04:06:42.437Z,29.25
2023-01-08T04:07:05.260Z,28.88
2023-01-08T04:07:28.049Z,29.20
2023-01-08T04:07:51.158Z,28.33
2023-01-08T04:08:16.461Z,28.10
2023-01-08T04:08:39.214Z,27.02
2023-01-08T04:09:03.143Z,28.00
2023-01-08T04:09:26.167Z,27.63
2023-01-08T04:09:48.908Z,23.98
2023-01-08T04:10:11.719Z,25.67
2023-01-08T04:10:34.449Z,25.67
2023-01-08T04:10:57.170Z,25.63
2023-01-08T04:11:20.275Z,25.02
2023-01-08T04:11:43.059Z,23.65
2023-01-08T04:12:07.739Z,24.64
2023-01-08T04:12:30.563Z,25.98
2023-01-08T04:12:53.345Z,24.35
2023-01-08T04:13:16.063Z,23.25
2023-01-08T04:13:39.044Z,24.10
2023-01-08T04:14:01.923Z,24.33
2023-01-08T04:14:24.741Z,25.75
2023-01-08T04:14:47.563Z,24.35
2023-01-08T04:15:11.374Z,24.67
2023-01-08T04:15:34.524Z,28.38
2023-01-08T04:15:58.383Z,28.58
2023-01-08T04:16:21.368Z,26.35
2023-01-08T04:16:44.145Z,26.13
2023-01-08T04:17:06.914Z,28.48
2023-01-08T04:17:29.765Z,32.28
2023-01-08T04:17:53.334Z,29.67
2023-01-08T04:18:16.179Z,31.25
2023-01-08T04:18:38.933Z,33.90
2023-01-08T04:19:01.701Z,31.50
2023-01-08T04:19:24.509Z,30.05
2023-01-08T04:19:47.374Z,35.85
2023-01-08T04:20:11.052Z,36.80
2023-01-08T04:20:34.076Z,36.25
2023-01-08T04:20:56.851Z,45.15
2023-01-08T04:21:19.549Z,36.63
2023-01-08T04:21:42.322Z,40.22
2023-01-08T04:22:06.202Z,37.90
2023-01-08T04:22:29.052Z,40.30
2023-01-08T04:22:51.841Z,37.40
2023-01-08T04:23:14.680Z,39.17
2023-01-08T04:23:37.561Z,37.05
2023-01-08T04:24:00.442Z,41.95
2023-01-08T04:24:23.214Z,40.47
2023-01-08T04:24:46.026Z,41.47
2023-01-08T04:25:09.587Z,43.33
2023-01-08T04:25:32.331Z,39.42
2023-01-08T04:25:55.045Z,39.25
2023-01-08T04:26:17.806Z,35.53
2023-01-08T04:26:40.813Z,34.00
2023-01-08T04:27:03.666Z,30.15
2023-01-08T04:27:27.862Z,30.90
2023-01-08T04:27:50.648Z,32.03
2023-01-08T04:28:13.443Z,28.23
2023-01-08T04:28:36.339Z,25.95
2023-01-08T04:28:59.042Z,28.45
2023-01-08T04:29:21.781Z,30.40
2023-01-08T04:29:44.527Z,30.95
2023-01-08T04:30:09.296Z,31.92
2023-01-08T04:30:32.027Z,30.15
2023-01-08T04:30:54.903Z,30.63
2023-01-08T04:31:17.912Z,30.88
2023-01-08T04:31:40.738Z,31.05
2023-01-08T04:32:03.549Z,29.83
2023-01-08T04:32:26.422Z,28.08
2023-01-08T04:32:49.276Z,29.50
2023-01-08T04:33:12.115Z,26.52
2023-01-08T04:33:34.996Z,27.05
2023-01-08T04:33:57.900Z,28.02
2023-01-08T04:34:20.676Z,26.77
2023-01-08T04:34:43.457Z,24.27
2023-01-08T04:35:07.082Z,25.90
2023-01-08T04:35:29.929Z,26.27
2023-01-08T04:35:52.663Z,25.45
2023-01-08T04:36:16.053Z,25.63
2023-01-08T04:36:38.902Z,26.08
2023-01-08T04:37:03.223Z,26.23
2023-01-08T04:37:25.969Z,25.50
2023-01-08T04:37:51.718Z,25.73
2023-01-08T04:38:14.490Z,24.00
2023-01-08T04:38:38.249Z,23.42
2023-01-08T04:39:01.028Z,25.02
2023-01-08T04:39:23.848Z,24.88
2023-01-08T04:39:46.679Z,25.08
2023-01-08T04:40:11.381Z,23.30
2023-01-08T04:40:34.258Z,24.63
2023-01-08T04:40:58.539Z,24.08
2023-01-08T04:41:21.425Z,23.73
2023-01-08T04:41:44.339Z,27.38
2023-01-08T04:42:07.205Z,29.48
2023-01-08T04:42:31.490Z,36.20
2023-01-08T04:42:54.211Z,30.23
2023-01-08T04:43:17.062Z,32.22
2023-01-08T04:43:39.941Z,28.13
2023-01-08T04:44:02.749Z,40.17
2023-01-08T04:44:25.526Z,50.85
2023-01-08T04:44:48.334Z,41.35
2023-01-08T04:45:11.561Z,40.28
2023-01-08T04:45:34.685Z,43.33
2023-01-08T04:45:58.388Z,48.13
2023-01-08T04:46:21.223Z,41.25
2023-01-08T04:46:44.208Z,43.60
2023-01-08T04:47:07.097Z,43.45
2023-01-08T04:47:29.937Z,58.67
2023-01-08T04:47:56.368Z,41.70
2023-01-08T04:48:19.118Z,38.45
2023-01-08T04:48:41.947Z,47.70
2023-01-08T04:49:04.740Z,63.78
2023-01-08T04:49:27.507Z,59.13
2023-01-08T04:49:50.284Z,74.97
2023-01-08T04:50:12.997Z,50.03
2023-01-08T04:50:35.718Z,31.88
2023-01-08T04:50:58.891Z,26.10
2023-01-08T04:51:22.441Z,26.65
2023-01-08T04:51:45.204Z,22.58
2023-01-08T04:52:07.923Z,23.80
2023-01-08T04:52:30.713Z,26.88
2023-01-08T04:52:53.448Z,26.80
2023-01-08T04:53:16.257Z,26.67
2023-01-08T04:53:41.330Z,28.83
2023-01-08T04:54:04.343Z,27.50
2023-01-08T04:54:27.074Z,24.02
2023-01-08T04:54:49.908Z,24.42
2023-01-08T04:55:12.684Z,21.92
2023-01-08T04:55:35.627Z,22.17
2023-01-08T04:56:02.693Z,22.33
2023-01-08T04:56:25.457Z,27.55
2023-01-08T04:56:52.554Z,26.92
2023-01-08T04:57:15.342Z,27.85
2023-01-08T04:57:39.602Z,23.67
2023-01-08T04:58:02.518Z,26.17
2023-01-08T04:58:25.234Z,27.17
2023-01-08T04:58:48.086Z,27.85
2023-01-08T04:59:10.907Z,40.67
2023-01-08T04:59:34.267Z,35.35
2023-01-08T04:59:56.976Z,34.88
2023-01-08T05:00:19.734Z,42.15
2023-01-08T05:00:42.459Z,53.22
2023-01-08T05:01:10.622Z,44.72
2023-01-08T05:01:33.837Z,40.97
2023-01-08T05:01:57.047Z,39.90
2023-01-08T05:02:20.232Z,37.20
2023-01-08T05:02:43.605Z,36.47
2023-01-08T05:03:06.614Z,36.97
2023-01-08T05:03:29.489Z,35.08
2023-01-08T05:03:54.092Z,34.00
2023-01-08T05:04:16.865Z,46.85
2023-01-08T05:04:39.686Z,40.13
2023-01-08T05:05:02.488Z,35.88
2023-01-08T05:05:25.298Z,39.70
2023-01-08T05:05:49.893Z,35.78
2023-01-08T05:06:12.864Z,32.22
2023-01-08T05:06:35.693Z,32.55
2023-01-08T05:06:58.475Z,32.42
2023-01-08T05:07:21.240Z,29.75
2023-01-08T05:07:43.985Z,28.60
2023-01-08T05:08:06.785Z,29.15
2023-01-08T05:08:29.590Z,27.67